Time;durP1;ratioP1;P1;durP2;ratioP2;P2;SDS_P1;SDS_P2;PMS_P1;PMS_P2;Temp;Humidity;BMP_temperature;BMP_pressure;BME280_temperature;BME280_humidity;BME280_pressure;Samples;Min_cycle;Max_cycle;Signal;HPM_P1;HPM_P2
2024/02/26 00:00:34;;;;;;;24.95;12.93;;;4.00;99.90;;;;;;5064257;28;20036;-69
2024/02/26 00:03:00;;;;;;;26.70;14.02;;;4.00;99.90;;;;;;5062910;28;20150;-69
2024/02/26 00:05:26;;;;;;;29.42;13.95;;;4.00;99.90;;;;;;5064353;28;20017;-68
2024/02/26 00:07:52;;;;;;;27.35;13.77;;;4.00;99.90;;;;;;5063870;28;20081;-68
2024/02/26 00:10:17;;;;;;;27.23;13.82;;;4.00;99.90;;;;;;5063891;28;20120;-68
2024/02/26 00:12:43;;;;;;;24.95;12.65;;;4.00;99.90;;;;;;5064156;28;20033;-70
2024/02/26 00:15:10;;;;;;;24.75;13.57;;;3.90;99.90;;;;;;5063881;28;20021;-69
2024/02/26 00:17:35;;;;;;;25.35;13.52;;;3.90;99.90;;;;;;5063145;28;20127;-68
2024/02/26 00:20:04;;;;;;;26.50;13.35;;;3.90;99.90;;;;;;5063859;28;20151;-68
2024/02/26 00:22:31;;;;;;;26.20;13.63;;;3.80;99.90;;;;;;5063555;28;20454;-70
2024/02/26 00:24:56;;;;;;;28.98;13.98;;;3.80;99.90;;;;;;5061145;28;20032;-69
2024/02/26 00:27:22;;;;;;;27.85;14.30;;;3.80;99.90;;;;;;5062264;28;20021;-69
2024/02/26 00:29:47;;;;;;;25.42;13.27;;;3.80;99.90;;;;;;5063049;28;20083;-68
2024/02/26 00:32:14;;;;;;;28.83;14.10;;;3.70;99.90;;;;;;5063825;28;20485;-68
2024/02/26 00:34:39;;;;;;;27.63;13.98;;;3.70;99.90;;;;;;5063523;28;20029;-69
2024/02/26 00:37:05;;;;;;;27.77;13.95;;;3.70;99.90;;;;;;5063536;28;20021;-68
2024/02/26 00:39:31;;;;;;;28.63;13.63;;;3.60;99.90;;;;;;5063838;28;20657;-69
2024/02/26 00:41:57;;;;;;;32.42;15.27;;;3.70;99.90;;;;;;5063482;28;20021;-68
2024/02/26 00:44:22;;;;;;;28.63;14.60;;;3.70;99.90;;;;;;5063709;28;20050;-68
2024/02/26 00:46:48;;;;;;;28.80;13.98;;;3.70;99.90;;;;;;5063348;28;20088;-67
2024/02/26 00:49:13;;;;;;;26.73;14.23;;;3.70;99.90;;;;;;5063164;28;20025;-68
2024/02/26 00:51:39;;;;;;;28.83;14.05;;;3.70;99.90;;;;;;5063601;28;20024;-68
2024/02/26 00:54:04;;;;;;;31.38;14.90;;;3.70;99.90;;;;;;5063299;28;20028;-69
2024/02/26 00:56:30;;;;;;;28.17;14.82;;;3.70;99.90;;;;;;5062181;28;20041;-69
2024/02/26 00:58:55;;;;;;;29.55;14.82;;;3.70;99.90;;;;;;5062936;28;20128;-68
2024/02/26 01:01:21;;;;;;;32.95;15.75;;;3.70;99.90;;;;;;5063402;28;20056;-68
2024/02/26 01:03:46;;;;;;;31.48;15.80;;;3.70;99.90;;;;;;5062025;28;20037;-68
2024/02/26 01:06:12;;;;;;;29.70;14.55;;;3.70;99.90;;;;;;5062224;28;20025;-68
2024/02/26 01:08:38;;;;;;;28.67;14.60;;;3.60;99.90;;;;;;5062321;28;20037;-69
2024/02/26 01:11:03;;;;;;;31.88;15.27;;;3.60;99.90;;;;;;5062955;28;20453;-69
2024/02/26 01:13:29;;;;;;;30.55;15.95;;;3.60;99.90;;;;;;5061730;28;20017;-69
2024/02/26 01:15:55;;;;;;;33.00;15.48;;;3.50;99.90;;;;;;5062931;28;20028;-68
2024/02/26 01:18:20;;;;;;;32.80;15.38;;;3.60;99.90;;;;;;5062773;28;20052;-68
2024/02/26 01:20:46;;;;;;;32.40;16.23;;;3.50;99.90;;;;;;5062948;28;20021;-69
2024/02/26 01:23:12;;;;;;;33.25;15.98;;;3.50;99.90;;;;;;5061267;28;20071;-68
2024/02/26 01:25:39;;;;;;;33.10;16.40;;;3.50;99.90;;;;;;5062620;28;21006;-68
2024/02/26 01:28:05;;;;;;;31.20;15.57;;;3.40;99.90;;;;;;5061185;28;20032;-69
2024/02/26 01:30:31;;;;;;;34.47;16.23;;;3.50;99.90;;;;;;5061932;28;20511;-69
2024/02/26 01:32:56;;;;;;;33.13;16.52;;;3.40;99.90;;;;;;5062861;28;20077;-69
2024/02/26 01:35:22;;;;;;;30.52;15.05;;;3.50;99.90;;;;;;5061202;28;20025;-68
2024/02/26 01:37:48;;;;;;;34.30;17.23;;;3.40;99.90;;;;;;5061377;28;20044;-68
2024/02/26 01:40:17;;;;;;;35.25;17.67;;;3.40;99.90;;;;;;5060862;28;20037;-67
2024/02/26 01:42:43;;;;;;;34.90;16.90;;;3.40;99.90;;;;;;5061840;28;20039;-69
2024/02/26 01:45:15;;;;;;;37.80;17.98;;;3.40;99.90;;;;;;5062326;28;20024;-68
2024/02/26 01:47:41;;;;;;;41.97;18.77;;;3.30;99.90;;;;;;5062425;28;20025;-68
2024/02/26 01:50:08;;;;;;;38.78;18.15;;;3.30;99.90;;;;;;5060870;28;20077;-69
2024/02/26 01:52:33;;;;;;;41.58;19.48;;;3.20;99.90;;;;;;5062351;28;20485;-68
2024/02/26 01:55:00;;;;;;;37.88;18.70;;;3.20;99.90;;;;;;5062231;28;20029;-69
2024/02/26 01:57:27;;;;;;;40.88;19.00;;;3.20;99.90;;;;;;5060884;28;20059;-69
2024/02/26 01:59:53;;;;;;;44.10;19.45;;;3.20;99.90;;;;;;5060805;28;20032;-67
2024/02/26 02:02:19;;;;;;;39.78;18.20;;;3.10;99.90;;;;;;5061098;28;20143;-68
2024/02/26 02:04:44;;;;;;;40.78;18.27;;;3.10;99.90;;;;;;5061232;28;20025;-70
2024/02/26 02:07:10;;;;;;;39.85;18.75;;;3.20;99.90;;;;;;5061729;28;20020;-69
2024/02/26 02:09:36;;;;;;;42.97;19.02;;;3.20;99.90;;;;;;5061080;28;20108;-68
2024/02/26 02:12:02;;;;;;;41.80;19.02;;;3.20;99.90;;;;;;5061848;28;20099;-69
2024/02/26 02:14:28;;;;;;;43.22;18.25;;;3.20;99.90;;;;;;5061458;28;20021;-68
2024/02/26 02:16:53;;;;;;;38.60;17.65;;;3.20;99.90;;;;;;5061918;28;20120;-68
2024/02/26 02:19:19;;;;;;;41.88;19.30;;;3.10;99.90;;;;;;5061501;28;20508;-69
2024/02/26 02:21:44;;;;;;;39.90;18.60;;;3.10;99.90;;;;;;5059275;28;20024;-68
2024/02/26 02:24:10;;;;;;;39.58;18.63;;;3.10;99.90;;;;;;5061744;28;20028;-68
2024/02/26 02:26:35;;;;;;;38.70;18.33;;;3.10;99.90;;;;;;5060102;28;20025;-68
2024/02/26 02:29:02;;;;;;;36.22;17.48;;;3.10;99.90;;;;;;5060418;28;20030;-69
2024/02/26 02:31:28;;;;;;;40.60;18.02;;;3.10;99.90;;;;;;5062091;28;20482;-69
2024/02/26 02:33:54;;;;;;;34.40;15.98;;;3.20;99.90;;;;;;5061701;28;20025;-68
2024/02/26 02:36:19;;;;;;;34.95;16.80;;;3.20;99.90;;;;;;5061497;28;20029;-67
2024/02/26 02:38:51;;;;;;;35.88;16.63;;;3.20;99.90;;;;;;5061499;28;20083;-68
2024/02/26 02:41:17;;;;;;;36.33;17.60;;;3.20;99.90;;;;;;5061155;28;20067;-68
2024/02/26 02:43:43;;;;;;;31.73;16.13;;;3.20;99.90;;;;;;5060612;28;20025;-68
2024/02/26 02:46:08;;;;;;;36.35;16.23;;;3.20;99.90;;;;;;5061432;28;20025;-67
2024/02/26 02:48:34;;;;;;;31.77;14.95;;;3.20;99.90;;;;;;5061327;28;20026;-68
2024/02/26 02:50:59;;;;;;;33.35;15.85;;;3.20;99.90;;;;;;5060509;28;20032;-68
2024/02/26 02:53:25;;;;;;;35.78;16.77;;;3.20;99.90;;;;;;5060251;28;20512;-69
2024/02/26 02:55:50;;;;;;;31.17;15.27;;;3.20;99.90;;;;;;5058468;28;20021;-69
2024/02/26 02:58:16;;;;;;;34.03;15.93;;;3.10;99.90;;;;;;5060032;28;20554;-69
2024/02/26 03:00:41;;;;;;;34.05;15.15;;;3.10;99.90;;;;;;5061381;28;20032;-68
2024/02/26 03:03:07;;;;;;;32.40;14.73;;;3.10;99.90;;;;;;5061077;28;20021;-68
2024/02/26 03:05:33;;;;;;;30.55;15.05;;;3.10;99.90;;;;;;5061362;28;20059;-70
2024/02/26 03:07:59;;;;;;;29.75;14.25;;;3.10;99.90;;;;;;5060116;28;20029;-69
2024/02/26 03:10:25;;;;;;;28.05;14.15;;;3.00;99.90;;;;;;5060798;28;20044;-68
2024/02/26 03:12:50;;;;;;;28.88;14.13;;;3.10;99.90;;;;;;5060390;28;20063;-69
2024/02/26 03:15:16;;;;;;;28.83;13.48;;;3.10;99.90;;;;;;5059692;28;20051;-69
2024/02/26 03:17:41;;;;;;;28.25;14.07;;;3.00;99.90;;;;;;5059765;28;20025;-68
2024/02/26 03:20:09;;;;;;;27.75;14.27;;;3.00;99.90;;;;;;5060139;28;20040;-68
2024/02/26 03:22:35;;;;;;;27.92;13.60;;;3.00;99.90;;;;;;5064152;28;20017;-68
2024/02/26 03:25:00;;;;;;;28.58;13.25;;;3.00;99.90;;;;;;5064865;28;20023;-69
2024/02/26 03:27:26;;;;;;;29.77;14.18;;;2.90;99.90;;;;;;5065363;28;20034;-69
2024/02/26 03:29:52;;;;;;;29.40;14.23;;;2.90;99.90;;;;;;5065589;28;20104;-67
2024/02/26 03:32:18;;;;;;;28.25;14.23;;;2.90;99.90;;;;;;5065475;28;20040;-68
2024/02/26 03:34:44;;;;;;;24.75;13.45;;;2.90;99.90;;;;;;5064274;28;20028;-68
2024/02/26 03:37:10;;;;;;;32.17;14.15;;;2.90;99.90;;;;;;5061960;28;20028;-68
2024/02/26 03:39:36;;;;;;;30.02;14.43;;;2.80;99.90;;;;;;5063472;28;20044;-70
2024/02/26 03:42:02;;;;;;;29.23;13.82;;;2.80;99.90;;;;;;5065143;28;20021;-68
2024/02/26 03:44:27;;;;;;;30.67;13.70;;;2.80;99.90;;;;;;5064998;28;20087;-70
2024/02/26 03:46:53;;;;;;;29.65;14.25;;;2.80;99.90;;;;;;5065334;28;20021;-68
2024/02/26 03:49:19;;;;;;;31.42;14.90;;;2.70;99.90;;;;;;5065144;28;20107;-67
2024/02/26 03:51:44;;;;;;;30.80;14.85;;;2.70;99.90;;;;;;5064378;28;20020;-71
2024/02/26 03:54:10;;;;;;;32.75;14.80;;;2.70;99.90;;;;;;5065189;28;20378;-69
2024/02/26 03:56:35;;;;;;;30.20;14.60;;;2.70;99.90;;;;;;5065034;28;20021;-69
2024/02/26 03:59:02;;;;;;;29.00;14.23;;;2.60;99.90;;;;;;5059700;28;20044;-69
2024/02/26 04:01:28;;;;;;;28.67;14.25;;;2.60;99.90;;;;;;5064895;28;20025;-69
2024/02/26 04:03:54;;;;;;;32.90;15.32;;;2.50;99.90;;;;;;5061970;28;20104;-70
2024/02/26 04:06:20;;;;;;;30.85;15.23;;;2.50;99.90;;;;;;5062968;28;20025;-68
2024/02/26 04:08:49;;;;;;;28.75;14.45;;;2.60;99.90;;;;;;5064715;28;20529;-68
2024/02/26 04:11:17;;;;;;;32.53;15.20;;;2.60;99.90;;;;;;5062897;28;20025;-68
2024/02/26 04:13:49;;;;;;;34.00;15.52;;;2.50;99.90;;;;;;5062657;28;20029;-69
2024/02/26 04:16:16;;;;;;;31.20;15.48;;;2.50;99.90;;;;;;5063160;28;20025;-69
2024/02/26 04:18:42;;;;;;;32.20;15.27;;;2.50;99.90;;;;;;5064345;28;20049;-68
2024/02/26 04:21:07;;;;;;;35.30;15.25;;;2.50;99.90;;;;;;5060843;28;20035;-69
2024/02/26 04:23:33;;;;;;;31.85;15.48;;;2.50;99.90;;;;;;5064684;28;20029;-70
2024/02/26 04:25:59;;;;;;;35.40;16.25;;;2.50;99.90;;;;;;5064297;28;20103;-69
2024/02/26 04:28:29;;;;;;;35.95;15.63;;;2.50;99.90;;;;;;5063260;28;20067;-68
2024/02/26 04:30:55;;;;;;;34.17;16.55;;;2.50;99.90;;;;;;5064115;28;20036;-68
2024/02/26 04:33:21;;;;;;;42.63;17.80;;;2.50;99.90;;;;;;5062445;28;20017;-68
2024/02/26 04:35:46;;;;;;;41.67;18.40;;;2.50;99.90;;;;;;5064368;28;20028;-68
2024/02/26 04:38:12;;;;;;;50.53;19.83;;;2.50;99.90;;;;;;5064275;28;20056;-67
2024/02/26 04:40:37;;;;;;;73.45;20.27;;;2.50;99.90;;;;;;5064125;28;20213;-69
2024/02/26 04:43:03;;;;;;;110.43;22.40;;;2.50;99.90;;;;;;5062883;28;20029;-68
2024/02/26 04:45:29;;;;;;;70.78;20.55;;;2.60;99.90;;;;;;5063790;28;20496;-69
2024/02/26 04:47:55;;;;;;;177.23;24.17;;;2.60;99.90;;;;;;5062896;28;20033;-68
2024/02/26 04:50:20;;;;;;;290.70;28.85;;;2.50;99.90;;;;;;5062762;28;20024;-69
2024/02/26 04:52:46;;;;;;;199.95;25.60;;;2.60;99.90;;;;;;5063000;28;20489;-68
2024/02/26 04:55:11;;;;;;;536.55;34.83;;;2.50;99.90;;;;;;5063515;28;20036;-68
2024/02/26 04:57:37;;;;;;;365.33;28.27;;;2.60;99.90;;;;;;5062719;28;20049;-69
2024/02/26 05:00:04;;;;;;;290.00;28.50;;;2.50;99.90;;;;;;5063461;28;20048;-70
2024/02/26 05:02:32;;;;;;;221.35;26.38;;;2.50;99.90;;;;;;5063584;28;20017;-71
2024/02/26 05:04:57;;;;;;;329.25;33.15;;;2.60;99.90;;;;;;5063532;28;20083;-70
2024/02/26 05:07:23;;;;;;;271.83;29.35;;;2.60;99.90;;;;;;5063711;28;20032;-69
2024/02/26 05:09:49;;;;;;;237.05;27.52;;;2.60;99.90;;;;;;5063124;28;20049;-70
2024/02/26 05:12:15;;;;;;;249.30;28.70;;;2.60;99.90;;;;;;5061350;28;20075;-69
2024/02/26 05:14:40;;;;;;;312.83;30.13;;;2.70;99.90;;;;;;5063601;28;20032;-69
2024/02/26 05:17:06;;;;;;;315.25;31.95;;;2.60;99.90;;;;;;5063081;28;20067;-68
2024/02/26 05:19:32;;;;;;;272.67;31.25;;;2.60;99.90;;;;;;5063501;28;20030;-70
2024/02/26 05:21:57;;;;;;;84.25;23.17;;;2.70;99.90;;;;;;5063662;28;20017;-70
2024/02/26 05:24:23;;;;;;;159.55;29.60;;;2.70;99.90;;;;;;5063124;28;20220;-68
2024/02/26 05:26:48;;;;;;;110.53;26.30;;;2.70;99.90;;;;;;5061134;28;20482;-70
2024/02/26 05:29:14;;;;;;;95.25;26.77;;;2.70;99.90;;;;;;5062233;28;20087;-69
2024/02/26 05:31:42;;;;;;;102.53;26.45;;;2.70;99.90;;;;;;5060485;28;20029;-70
2024/02/26 05:34:08;;;;;;;71.47;25.77;;;2.70;99.90;;;;;;5052934;28;20122;-71
2024/02/26 05:36:33;;;;;;;79.15;26.85;;;2.70;99.90;;;;;;5048144;28;20454;-69
2024/02/26 05:39:03;;;;;;;78.93;26.27;;;2.80;99.90;;;;;;5058293;28;20120;-69
2024/02/26 05:41:29;;;;;;;73.78;24.25;;;2.70;99.90;;;;;;5062375;28;20025;-69
2024/02/26 05:43:54;;;;;;;69.55;24.08;;;2.70;99.90;;;;;;5062234;28;20029;-68
2024/02/26 05:46:21;;;;;;;78.30;24.73;;;2.70;99.90;;;;;;5060125;28;20037;-69
2024/02/26 05:48:48;;;;;;;70.40;24.88;;;2.70;99.90;;;;;;5058975;28;20410;-69
2024/02/26 05:51:13;;;;;;;58.95;22.65;;;2.70;99.90;;;;;;5059637;28;20024;-70
2024/02/26 05:53:40;;;;;;;68.47;24.27;;;2.70;99.90;;;;;;5061823;28;20500;-68
2024/02/26 05:56:06;;;;;;;64.97;23.55;;;2.70;99.90;;;;;;5057586;28;20036;-69
2024/02/26 05:58:32;;;;;;;71.60;25.55;;;2.70;99.90;;;;;;5061055;28;20076;-69
2024/02/26 06:00:57;;;;;;;67.20;25.33;;;2.70;99.90;;;;;;5060781;28;20020;-69
2024/02/26 06:03:23;;;;;;;70.90;26.10;;;2.70;99.90;;;;;;5060376;28;20021;-68
2024/02/26 06:05:49;;;;;;;70.25;24.67;;;2.70;99.90;;;;;;5060980;28;20041;-69
2024/02/26 06:08:14;;;;;;;67.10;24.17;;;2.80;99.90;;;;;;5054245;28;20014;-69
2024/02/26 06:10:40;;;;;;;63.95;24.52;;;2.80;99.90;;;;;;5061411;28;20021;-70
2024/02/26 06:13:06;;;;;;;69.85;24.67;;;2.80;99.90;;;;;;5060409;28;20025;-69
2024/02/26 06:15:31;;;;;;;69.78;24.05;;;2.80;99.90;;;;;;5060441;28;20484;-70
2024/02/26 06:17:57;;;;;;;62.90;22.20;;;2.80;99.90;;;;;;5061579;28;20092;-69
2024/02/26 06:20:22;;;;;;;62.95;23.00;;;2.80;99.90;;;;;;5062110;28;20032;-69
2024/02/26 06:22:48;;;;;;;59.05;22.48;;;2.70;99.90;;;;;;5062632;28;20490;-68
2024/02/26 06:25:14;;;;;;;61.00;21.65;;;2.70;99.90;;;;;;5062026;28;20033;-68
2024/02/26 06:27:40;;;;;;;55.03;21.02;;;2.70;99.90;;;;;;5060689;28;20032;-70
2024/02/26 06:30:06;;;;;;;50.80;20.67;;;2.70;99.90;;;;;;5062449;28;20017;-69
2024/02/26 06:32:32;;;;;;;45.95;18.70;;;2.70;99.90;;;;;;5060806;28;20104;-68
2024/02/26 06:34:57;;;;;;;46.20;18.55;;;2.70;99.90;;;;;;5062451;28;20035;-68
2024/02/26 06:37:23;;;;;;;45.60;19.00;;;2.80;99.90;;;;;;5062192;28;20423;-68
2024/02/26 06:39:48;;;;;;;38.78;17.35;;;2.70;99.90;;;;;;5060754;28;20032;-68
2024/02/26 06:42:14;;;;;;;39.80;15.93;;;2.80;99.90;;;;;;5062080;28;20040;-69
2024/02/26 06:44:40;;;;;;;39.00;16.83;;;2.80;99.90;;;;;;5062187;28;20047;-68
2024/02/26 06:47:05;;;;;;;35.70;15.82;;;2.80;99.90;;;;;;5061725;28;20017;-69
2024/02/26 06:49:31;;;;;;;41.53;17.08;;;2.80;99.90;;;;;;5062128;28;20045;-70
2024/02/26 06:51:57;;;;;;;40.45;16.38;;;2.90;99.90;;;;;;5061081;28;20028;-70
2024/02/26 06:54:22;;;;;;;34.33;14.70;;;2.90;99.90;;;;;;5061882;28;20079;-69
2024/02/26 06:56:48;;;;;;;33.08;14.90;;;2.90;99.90;;;;;;5064348;28;20029;-70
2024/02/26 06:59:13;;;;;;;35.35;15.68;;;2.90;99.90;;;;;;5066209;28;20041;-69
2024/02/26 07:01:42;;;;;;;33.60;14.85;;;2.90;99.90;;;;;;5066025;28;20025;-69
2024/02/26 07:04:08;;;;;;;36.40;15.40;;;2.90;99.90;;;;;;5065347;28;20043;-71
2024/02/26 07:06:34;;;;;;;33.17;14.98;;;3.00;99.90;;;;;;5065882;28;20013;-69
2024/02/26 07:08:59;;;;;;;31.42;14.25;;;3.00;99.90;;;;;;5064235;28;20117;-71
2024/02/26 07:11:25;;;;;;;35.67;15.13;;;3.00;99.90;;;;;;5066002;28;20017;-71
2024/02/26 07:13:50;;;;;;;29.60;14.40;;;3.00;99.90;;;;;;5065875;28;20060;-70
2024/02/26 07:16:16;;;;;;;33.65;14.77;;;3.10;99.90;;;;;;5065503;28;20025;-70
2024/02/26 07:18:43;;;;;;;35.03;14.20;;;3.10;99.90;;;;;;5064121;28;20101;-70
2024/02/26 07:21:09;;;;;;;30.52;15.20;;;3.10;99.90;;;;;;5065416;28;20032;-69
2024/02/26 07:23:34;;;;;;;37.17;15.32;;;3.10;99.90;;;;;;5065510;28;20025;-70
2024/02/26 07:26:00;;;;;;;32.90;15.35;;;3.20;99.90;;;;;;5065629;28;20445;-69
2024/02/26 07:28:25;;;;;;;34.08;14.55;;;3.20;99.90;;;;;;5064973;28;20021;-70
2024/02/26 07:30:51;;;;;;;31.23;14.95;;;3.20;99.90;;;;;;5065404;28;20064;-70
2024/02/26 07:33:16;;;;;;;34.97;16.08;;;3.30;99.90;;;;;;5065543;28;20022;-68
2024/02/26 07:35:42;;;;;;;31.85;14.95;;;3.30;99.90;;;;;;5065260;28;20020;-68
2024/02/26 07:38:08;;;;;;;34.83;15.40;;;3.30;99.90;;;;;;5065217;28;20037;-69
2024/02/26 07:40:33;;;;;;;33.63;15.75;;;3.40;99.90;;;;;;5065611;28;20425;-68
2024/02/26 07:42:59;;;;;;;34.08;15.98;;;3.40;99.90;;;;;;5065030;28;20028;-69
2024/02/26 07:45:24;;;;;;;31.40;15.45;;;3.40;99.90;;;;;;5065502;28;20013;-69
2024/02/26 07:47:51;;;;;;;34.20;15.93;;;3.40;99.90;;;;;;5064022;28;20694;-69
2024/02/26 07:50:17;;;;;;;38.78;15.38;;;3.40;99.90;;;;;;5064657;28;20029;-70
2024/02/26 07:52:44;;;;;;;33.85;16.50;;;3.50;99.90;;;;;;5063806;28;20382;-69
2024/02/26 07:55:10;;;;;;;33.67;15.48;;;3.50;99.90;;;;;;5065143;28;20036;-69
2024/02/26 07:57:36;;;;;;;39.20;16.65;;;3.50;99.90;;;;;;5064186;28;20047;-70
2024/02/26 08:00:03;;;;;;;33.85;15.90;;;3.60;99.90;;;;;;5065072;28;20024;-70
2024/02/26 08:02:28;;;;;;;32.45;15.18;;;3.60;99.90;;;;;;5065181;28;20024;-71
2024/02/26 08:04:54;;;;;;;36.38;16.27;;;3.60;99.90;;;;;;5064692;28;20122;-71
2024/02/26 08:07:21;;;;;;;40.35;16.17;;;3.60;99.90;;;;;;5062399;28;20122;-69
2024/02/26 08:09:47;;;;;;;37.45;16.05;;;3.60;99.90;;;;;;5064572;28;20051;-70
2024/02/26 08:12:12;;;;;;;39.40;16.23;;;3.70;99.90;;;;;;5063182;28;20028;-69
2024/02/26 08:14:38;;;;;;;33.58;15.85;;;3.70;99.90;;;;;;5061972;28;20025;-68
2024/02/26 08:17:04;;;;;;;40.28;17.13;;;3.60;99.90;;;;;;5056071;28;20025;-70
2024/02/26 08:19:29;;;;;;;34.95;16.02;;;3.60;99.90;;;;;;5056552;28;20052;-70
2024/02/26 08:21:55;;;;;;;40.92;16.88;;;3.70;99.90;;;;;;5061605;28;20024;-70
2024/02/26 08:24:20;;;;;;;38.28;17.38;;;3.70;99.90;;;;;;5061216;28;20081;-68
2024/02/26 08:26:46;;;;;;;38.88;16.40;;;3.70;99.90;;;;;;5060843;28;20029;-69
2024/02/26 08:29:12;;;;;;;33.88;15.98;;;3.80;99.90;;;;;;5062566;28;20116;-71
2024/02/26 08:31:37;;;;;;;35.75;17.17;;;3.80;99.90;;;;;;5059067;28;20056;-69
2024/02/26 08:34:06;;;;;;;37.25;16.67;;;3.80;99.90;;;;;;5062900;28;20017;-70
2024/02/26 08:36:33;;;;;;;36.05;16.25;;;3.80;99.90;;;;;;5062248;28;20024;-70
2024/02/26 08:38:59;;;;;;;38.45;16.50;;;3.80;99.90;;;;;;5062106;28;20104;-70
2024/02/26 08:41:25;;;;;;;39.45;16.92;;;3.80;99.90;;;;;;5063408;28;20039;-70
2024/02/26 08:43:50;;;;;;;38.65;16.55;;;3.90;99.90;;;;;;5063010;28;20477;-72
2024/02/26 08:46:16;;;;;;;36.60;16.63;;;3.90;99.90;;;;;;5060928;28;20025;-70
2024/02/26 08:48:41;;;;;;;36.75;16.38;;;4.10;99.90;;;;;;5061620;28;20017;-71
2024/02/26 08:51:08;;;;;;;33.40;15.50;;;4.00;99.90;;;;;;5061528;28;20393;-70
2024/02/26 08:53:34;;;;;;;35.67;17.23;;;4.00;99.90;;;;;;5062961;28;20029;-70
2024/02/26 08:55:59;;;;;;;36.88;16.80;;;4.00;99.90;;;;;;5063119;28;20077;-70
2024/02/26 08:58:26;;;;;;;38.08;17.08;;;4.00;99.90;;;;;;5062717;28;20052;-69
2024/02/26 09:00:51;;;;;;;35.75;17.30;;;4.00;99.90;;;;;;5063095;28;20497;-72
2024/02/26 09:03:17;;;;;;;38.28;16.98;;;4.10;99.90;;;;;;5060146;28;20025;-70
2024/02/26 09:05:43;;;;;;;37.35;16.98;;;4.10;99.90;;;;;;5062781;28;20028;-72
2024/02/26 09:08:08;;;;;;;34.50;16.17;;;4.10;99.90;;;;;;5061100;28;20428;-70
2024/02/26 09:10:34;;;;;;;34.60;17.00;;;4.20;99.90;;;;;;5063135;28;20060;-69
2024/02/26 09:12:59;;;;;;;37.65;16.88;;;4.20;99.90;;;;;;5063142;28;20448;-71
2024/02/26 09:15:25;;;;;;;36.53;17.08;;;4.20;99.90;;;;;;5062044;28;20028;-72
2024/02/26 09:17:51;;;;;;;37.10;17.98;;;4.30;99.90;;;;;;5057358;28;20045;-70
2024/02/26 09:20:20;;;;;;;38.85;18.02;;;4.20;99.90;;;;;;5058798;28;20028;-71
2024/02/26 09:22:46;;;;;;;39.08;18.38;;;4.40;99.90;;;;;;5057803;28;20028;-72
2024/02/26 09:25:13;;;;;;;39.63;18.17;;;4.30;99.90;;;;;;5060786;28;20522;-70
2024/02/26 09:27:38;;;;;;;41.25;17.95;;;4.40;99.90;;;;;;5056473;28;20025;-71
2024/02/26 09:30:04;;;;;;;37.50;17.75;;;4.50;99.90;;;;;;5058667;28;20029;-69
2024/02/26 09:32:30;;;;;;;39.95;16.85;;;4.50;99.90;;;;;;5060317;28;20044;-70
2024/02/26 09:34:55;;;;;;;40.95;18.63;;;4.60;99.90;;;;;;5061846;28;20036;-72
2024/02/26 09:37:21;;;;;;;34.97;17.02;;;4.60;99.90;;;;;;5061277;28;20024;-71
2024/02/26 09:39:47;;;;;;;37.88;17.25;;;4.60;99.90;;;;;;5058808;28;20040;-69
2024/02/26 09:42:13;;;;;;;36.90;18.02;;;4.70;99.90;;;;;;5059578;28;20021;-71
2024/02/26 09:44:42;;;;;;;37.58;17.60;;;4.70;99.90;;;;;;5055726;28;20037;-70
2024/02/26 09:47:10;;;;;;;36.20;17.63;;;4.80;99.90;;;;;;5053003;28;20821;-72
2024/02/26 09:49:36;;;;;;;40.38;19.02;;;4.90;99.90;;;;;;5060234;28;20021;-71
2024/02/26 09:52:04;;;;;;;34.95;17.15;;;5.00;99.90;;;;;;5054820;28;20793;-72
2024/02/26 09:54:31;;;;;;;41.70;19.38;;;5.00;99.90;;;;;;5054785;28;20029;-71
2024/02/26 09:57:00;;;;;;;38.95;18.35;;;5.10;99.90;;;;;;5059174;28;20021;-70
2024/02/26 09:59:27;;;;;;;35.60;17.33;;;5.10;99.90;;;;;;5054036;28;20037;-71
2024/02/26 10:01:54;;;;;;;35.95;18.05;;;5.20;99.90;;;;;;5058700;28;20088;-71
2024/02/26 10:04:21;;;;;;;38.75;18.13;;;5.20;99.90;;;;;;5053586;28;20032;-71
2024/02/26 10:06:47;;;;;;;33.75;17.05;;;5.30;99.90;;;;;;5057222;28;20378;-70
2024/02/26 10:09:15;;;;;;;36.80;17.73;;;5.40;99.90;;;;;;5055004;28;20045;-70
2024/02/26 10:11:43;;;;;;;36.22;18.48;;;5.40;99.90;;;;;;5060307;28;20028;-71
2024/02/26 10:14:08;;;;;;;33.45;16.95;;;5.50;99.90;;;;;;5058951;28;20048;-72
2024/02/26 10:16:35;;;;;;;37.13;17.23;;;5.70;99.90;;;;;;5056671;28;20045;-73
2024/02/26 10:19:01;;;;;;;33.95;17.20;;;5.80;99.90;;;;;;5054904;28;20056;-72
2024/02/26 10:21:27;;;;;;;35.05;17.88;;;5.90;99.90;;;;;;5054755;28;20466;-72
2024/02/26 10:23:54;;;;;;;30.95;16.58;;;6.00;99.90;;;;;;5057185;28;20017;-69
2024/02/26 10:26:20;;;;;;;36.20;17.45;;;6.10;99.90;;;;;;5059910;28;20021;-71
2024/02/26 10:28:46;;;;;;;31.02;16.70;;;6.30;99.90;;;;;;5061344;28;20021;-71
2024/02/26 10:31:14;;;;;;;34.55;17.58;;;6.40;99.90;;;;;;5057269;28;20024;-71
2024/02/26 10:33:41;;;;;;;33.70;16.98;;;6.60;99.90;;;;;;5060074;28;20130;-70
2024/02/26 10:36:10;;;;;;;30.52;16.65;;;6.70;99.90;;;;;;5060519;28;20021;-71
2024/02/26 10:38:37;;;;;;;29.33;16.10;;;6.80;99.90;;;;;;5060993;28;20041;-72
2024/02/26 10:41:04;;;;;;;28.90;15.70;;;7.00;99.90;;;;;;5061752;28;20033;-71
2024/02/26 10:43:30;;;;;;;29.70;15.60;;;7.10;99.90;;;;;;5060850;28;20028;-73
2024/02/26 10:45:56;;;;;;;30.23;15.55;;;7.20;99.90;;;;;;5060891;28;20029;-72
2024/02/26 10:48:21;;;;;;;27.15;15.77;;;7.30;99.90;;;;;;5061336;28;20036;-71
2024/02/26 10:50:48;;;;;;;26.45;14.18;;;7.40;99.90;;;;;;5060359;28;20037;-71
2024/02/26 10:53:19;;;;;;;25.55;14.90;;;7.30;99.90;;;;;;5061112;28;20029;-71
2024/02/26 10:56:04;;;;;;;25.05;14.48;;;7.50;99.90;;;;;;5061614;28;20025;-71
2024/02/26 10:58:31;;;;;;;27.15;14.57;;;7.50;99.90;;;;;;5060146;28;20037;-71
2024/02/26 11:00:57;;;;;;;26.17;13.65;;;7.40;99.90;;;;;;5061683;28;20033;-72
2024/02/26 11:03:24;;;;;;;23.85;13.07;;;7.40;99.90;;;;;;5061035;28;20037;-72
2024/02/26 11:05:50;;;;;;;25.40;14.02;;;7.30;99.90;;;;;;5060611;28;20496;-70
2024/02/26 11:08:21;;;;;;;24.27;13.68;;;7.30;99.90;;;;;;5061434;28;20486;-72
2024/02/26 11:10:48;;;;;;;25.55;13.43;;;7.40;99.90;;;;;;5060432;28;20580;-71
2024/02/26 11:13:16;;;;;;;25.42;12.98;;;7.30;99.90;;;;;;5061543;28;20017;-70
2024/02/26 11:15:43;;;;;;;22.30;12.93;;;7.30;99.90;;;;;;5061877;28;20062;-70
2024/02/26 11:18:09;;;;;;;23.27;13.45;;;7.30;99.90;;;;;;5060444;28;20053;-70
2024/02/26 11:20:39;;;;;;;21.90;12.48;;;7.30;99.90;;;;;;5059849;28;20029;-74
2024/02/26 11:23:04;;;;;;;23.08;13.02;;;7.20;99.90;;;;;;5060888;28;20047;-70
2024/02/26 11:25:30;;;;;;;23.90;13.10;;;7.20;99.90;;;;;;5060386;28;20017;-70
2024/02/26 11:28:01;;;;;;;23.75;12.95;;;7.20;99.90;;;;;;5057042;28;20032;-72
2024/02/26 11:30:33;;;;;;;22.85;12.48;;;7.20;99.90;;;;;;5058767;28;20033;-72
2024/02/26 11:32:59;;;;;;;24.17;12.70;;;7.20;99.90;;;;;;5059459;28;20056;-70
2024/02/26 11:35:25;;;;;;;21.15;12.60;;;7.30;99.90;;;;;;5058119;28;20044;-71
2024/02/26 11:37:55;;;;;;;23.10;13.20;;;7.30;99.90;;;;;;5056319;28;20076;-72
2024/02/26 11:40:23;;;;;;;23.77;13.50;;;7.30;99.90;;;;;;5058565;28;20029;-71
2024/02/26 11:42:50;;;;;;;23.98;12.50;;;7.30;99.90;;;;;;5060783;28;20025;-73
2024/02/26 11:45:42;;;;;;;23.77;13.07;;;7.30;99.90;;;;;;5063959;28;20037;-71
2024/02/26 11:48:20;;;;;;;20.58;12.10;;;7.40;99.90;;;;;;5054844;28;20029;-71
2024/02/26 11:50:53;;;;;;;23.50;12.48;;;7.30;99.90;;;;;;5062517;28;20025;-72
2024/02/26 11:53:23;;;;;;;21.88;13.07;;;7.30;99.90;;;;;;5060815;28;20032;-73
2024/02/26 11:56:18;;;;;;;22.10;12.65;;;7.20;99.90;;;;;;5047877;28;20029;-70
2024/02/26 11:58:44;;;;;;;22.05;12.55;;;7.30;99.90;;;;;;5061599;28;20033;-74
2024/02/26 12:01:47;;;;;;;24.75;12.60;;;7.20;99.90;;;;;;5052467;28;20025;-71
2024/02/26 12:04:14;;;;;;;20.92;12.63;;;7.20;99.90;;;;;;5061184;28;20021;-72
2024/02/26 12:06:46;;;;;;;23.00;13.02;;;7.30;99.90;;;;;;5057259;28;20055;-71
2024/02/26 12:09:13;;;;;;;22.48;11.93;;;7.30;99.90;;;;;;5061594;28;20060;-72
2024/02/26 12:11:39;;;;;;;22.27;12.15;;;7.40;99.90;;;;;;5059447;28;20021;-71
2024/02/26 12:14:07;;;;;;;20.35;11.05;;;7.50;99.90;;;;;;5060176;28;20025;-71
2024/02/26 12:16:40;;;;;;;20.50;10.82;;;7.60;99.90;;;;;;5055329;28;21051;-73
2024/02/26 12:19:07;;;;;;;18.73;10.50;;;7.70;99.90;;;;;;5055814;28;20076;-70
2024/02/26 12:21:35;;;;;;;16.27;10.50;;;7.80;99.90;;;;;;5063622;28;20025;-72
2024/02/26 12:24:15;;;;;;;18.65;10.98;;;7.90;99.90;;;;;;5059852;28;20029;-73
2024/02/26 12:26:41;;;;;;;19.52;10.50;;;8.00;99.90;;;;;;5061280;28;20041;-72
2024/02/26 12:29:07;;;;;;;19.23;9.93;;;8.00;99.90;;;;;;5061254;28;20394;-73
2024/02/26 12:31:34;;;;;;;17.30;10.70;;;8.10;99.90;;;;;;5057637;28;20084;-73